Terminal Aerodrome Forecast
Issued by NWS

Home | Current Version | Previous Version | Text Only | Print | Product List | Glossary On
Versions: 1 2 3 4 5 6 7 8 9 10 11 12 13
000
FTUS44 KLZK 031100
TAFHRO
TAF
KHRO 031121Z 0312/0412 13003KT P6SM SCT250
     FM031500 18009KT P6SM SCT040 SCT150
     FM040300 16007KT P6SM BKN150=

USA.gov is the U.S. government's official web portal to all federal, state and local government web resources and services.